sensor_id;sensor_type;location;lat;lon;timestamp;pressure;altitude;pressure_sealevel;temperature;humidity
61568;BME280;47462;59.172;17.196;2023-02-02T00:02:00;99748.56;;;-1.44;81.24
61568;BME280;47462;59.172;17.196;2023-02-02T00:04:28;99746.84;;;-1.47;81.19
61568;BME280;47462;59.172;17.196;2023-02-02T00:06:54;99751.97;;;-1.48;81.04
61568;BME280;47462;59.172;17.196;2023-02-02T00:09:26;99757.94;;;-1.49;81.12
61568;BME280;47462;59.172;17.196;2023-02-02T00:11:54;99756.22;;;-1.47;80.85
61568;BME280;47462;59.172;17.196;2023-02-02T00:14:19;99775.84;;;-1.46;81.12
61568;BME280;47462;59.172;17.196;2023-02-02T00:16:46;99718.53;;;-1.85;80.81
61568;BME280;47462;59.172;17.196;2023-02-02T00:19:15;99763.03;;;-1.54;80.48
61568;BME280;47462;59.172;17.196;2023-02-02T00:21:41;99776.66;;;-1.53;80.59
61568;BME280;47462;59.172;17.196;2023-02-02T00:24:10;99687.63;;;-2.13;80.26
61568;BME280;47462;59.172;17.196;2023-02-02T00:26:37;99773.13;;;-1.74;80.32
61568;BME280;47462;59.172;17.196;2023-02-02T00:29:05;99773.94;;;-1.81;80.80
61568;BME280;47462;59.172;17.196;2023-02-02T00:31:31;99751.72;;;-1.93;80.60
61568;BME280;47462;59.172;17.196;2023-02-02T00:33:57;99767.97;;;-1.83;80.50
61568;BME280;47462;59.172;17.196;2023-02-02T00:36:22;99693.53;;;-2.28;80.26
61568;BME280;47462;59.172;17.196;2023-02-02T00:38:48;99788.47;;;-1.77;80.75
61568;BME280;47462;59.172;17.196;2023-02-02T00:41:19;99726.75;;;-2.26;80.38
61568;BME280;47462;59.172;17.196;2023-02-02T00:43:44;99783.28;;;-1.86;80.45
61568;BME280;47462;59.172;17.196;2023-02-02T00:46:30;99796.16;;;-1.72;80.29
61568;BME280;47462;59.172;17.196;2023-02-02T00:48:55;99778.19;;;-1.86;80.58
61568;BME280;47462;59.172;17.196;2023-02-02T00:51:20;99803.03;;;-1.70;80.64
61568;BME280;47462;59.172;17.196;2023-02-02T00:53:46;99742.22;;;-2.09;80.65
61568;BME280;47462;59.172;17.196;2023-02-02T00:56:11;99807.25;;;-1.70;80.10
61568;BME280;47462;59.172;17.196;2023-02-02T00:58:36;99785.84;;;-1.85;80.46
61568;BME280;47462;59.172;17.196;2023-02-02T01:01:02;99757.53;;;-2.11;80.21
61568;BME280;47462;59.172;17.196;2023-02-02T01:03:27;99787.59;;;-1.82;80.29
61568;BME280;47462;59.172;17.196;2023-02-02T01:05:53;99779.88;;;-1.88;80.12
61568;BME280;47462;59.172;17.196;2023-02-02T01:08:18;99766.19;;;-1.93;79.97
61568;BME280;47462;59.172;17.196;2023-02-02T01:10:43;99821.81;;;-1.63;80.25
61568;BME280;47462;59.172;17.196;2023-02-02T01:13:09;99782.44;;;-1.85;79.72
61568;BME280;47462;59.172;17.196;2023-02-02T01:15:35;99802.06;;;-1.81;80.12
61568;BME280;47462;59.172;17.196;2023-02-02T01:18:01;99792.69;;;-1.85;80.07
61568;BME280;47462;59.172;17.196;2023-02-02T01:20:26;99848.25;;;-1.63;79.88
61568;BME280;47462;59.172;17.196;2023-02-02T01:22:51;99809.59;;;-2.00;79.92
61568;BME280;47462;59.172;17.196;2023-02-02T01:25:17;99760.88;;;-2.20;80.32
61568;BME280;47462;59.172;17.196;2023-02-02T01:27:42;99861.94;;;-1.56;80.31
61568;BME280;47462;59.172;17.196;2023-02-02T01:30:08;99870.50;;;-1.52;79.75
61568;BME280;47462;59.172;17.196;2023-02-02T01:32:34;99783.97;;;-2.07;79.63
61568;BME280;47462;59.172;17.196;2023-02-02T01:34:59;99843.84;;;-1.84;79.73
61568;BME280;47462;59.172;17.196;2023-02-02T01:37:24;99823.31;;;-1.91;79.89
61568;BME280;47462;59.172;17.196;2023-02-02T01:39:50;99845.56;;;-1.80;79.23
61568;BME280;47462;59.172;17.196;2023-02-02T01:42:20;99860.06;;;-1.78;79.28
61568;BME280;47462;59.172;17.196;2023-02-02T01:47:26;99840.31;;;-1.95;79.50
61568;BME280;47462;59.172;17.196;2023-02-02T01:49:54;99901.09;;;-1.68;79.62
61568;BME280;47462;59.172;17.196;2023-02-02T01:52:21;99677.56;;;-3.00;79.38
61568;BME280;47462;59.172;17.196;2023-02-02T01:54:51;99878.75;;;-1.87;79.06
61568;BME280;47462;59.172;17.196;2023-02-02T01:57:23;99914.75;;;-1.64;79.17
61568;BME280;47462;59.172;17.196;2023-02-02T01:59:50;99907.00;;;-1.72;78.93
61568;BME280;47462;59.172;17.196;2023-02-02T02:02:18;99912.94;;;-1.77;78.97
61568;BME280;47462;59.172;17.196;2023-02-02T02:04:43;99891.44;;;-1.97;78.89
61568;BME280;47462;59.172;17.196;2023-02-02T02:07:10;99926.47;;;-1.89;79.34
61568;BME280;47462;59.172;17.196;2023-02-02T02:09:36;99937.56;;;-1.89;79.30
61568;BME280;47462;59.172;17.196;2023-02-02T02:12:01;99831.31;;;-2.51;79.05
61568;BME280;47462;59.172;17.196;2023-02-02T02:14:27;99809.78;;;-2.72;78.82
61568;BME280;47462;59.172;17.196;2023-02-02T02:27:02;99963.88;;;-1.99;78.44
61568;BME280;47462;59.172;17.196;2023-02-02T02:29:53;99974.97;;;-1.99;79.02
61568;BME280;47462;59.172;17.196;2023-02-02T02:35:29;99985.22;;;-1.95;78.33
61568;BME280;47462;59.172;17.196;2023-02-02T02:41:12;100003.81;;;-2.09;78.88
61568;BME280;47462;59.172;17.196;2023-02-02T02:43:44;100005.59;;;-2.03;78.60
61568;BME280;47462;59.172;17.196;2023-02-02T02:46:11;100010.78;;;-1.97;78.44
61568;BME280;47462;59.172;17.196;2023-02-02T02:48:37;100008.16;;;-2.05;78.25
61568;BME280;47462;59.172;17.196;2023-02-02T02:51:08;99938.69;;;-2.43;78.07
61568;BME280;47462;59.172;17.196;2023-02-02T02:53:53;99930.84;;;-2.59;78.24
61568;BME280;47462;59.172;17.196;2023-02-02T02:56:31;99872.44;;;-3.00;77.92
61568;BME280;47462;59.172;17.196;2023-02-02T02:59:05;99989.84;;;-2.39;78.23
61568;BME280;47462;59.172;17.196;2023-02-02T03:01:50;100040.47;;;-2.08;77.96
61568;BME280;47462;59.172;17.196;2023-02-02T04:04:46;100097.97;;;-2.98;77.71
61568;BME280;47462;59.172;17.196;2023-02-02T04:07:11;100134.69;;;-2.35;77.68
61568;BME280;47462;59.172;17.196;2023-02-02T04:09:37;100099.38;;;-2.63;77.77
61568;BME280;47462;59.172;17.196;2023-02-02T04:12:02;100122.63;;;-2.46;77.64
61568;BME280;47462;59.172;17.196;2023-02-02T04:14:28;100096.66;;;-2.73;77.48
61568;BME280;47462;59.172;17.196;2023-02-02T04:16:53;100150.91;;;-2.36;77.66
61568;BME280;47462;59.172;17.196;2023-02-02T04:19:19;100130.28;;;-2.46;77.45
61568;BME280;47462;59.172;17.196;2023-02-02T04:21:44;100096.69;;;-2.71;77.54
61568;BME280;47462;59.172;17.196;2023-02-02T04:24:13;100096.91;;;-2.57;77.48
61568;BME280;47462;59.172;17.196;2023-02-02T04:26:39;100155.28;;;-2.25;77.91
61568;BME280;47462;59.172;17.196;2023-02-02T04:29:04;100169.00;;;-2.20;77.78
61568;BME280;47462;59.172;17.196;2023-02-02T04:31:30;100145.75;;;-2.39;77.70
61568;BME280;47462;59.172;17.196;2023-02-02T04:33:56;100064.06;;;-2.91;77.50
61568;BME280;47462;59.172;17.196;2023-02-02T04:36:21;100159.28;;;-2.43;77.61
61568;BME280;47462;59.172;17.196;2023-02-02T04:38:53;100105.81;;;-2.87;77.55
61568;BME280;47462;59.172;17.196;2023-02-02T04:41:19;100180.53;;;-2.45;77.51
61568;BME280;47462;59.172;17.196;2023-02-02T04:43:45;100191.72;;;-2.39;77.59
61568;BME280;47462;59.172;17.196;2023-02-02T04:46:11;100148.53;;;-2.77;77.41
61568;BME280;47462;59.172;17.196;2023-02-02T04:48:37;100196.75;;;-2.45;77.56
61568;BME280;47462;59.172;17.196;2023-02-02T04:51:04;100177.00;;;-2.55;77.42
61568;BME280;47462;59.172;17.196;2023-02-02T04:53:31;100211.44;;;-2.30;77.58
61568;BME280;47462;59.172;17.196;2023-02-02T04:55:57;100213.28;;;-2.23;77.58
61568;BME280;47462;59.172;17.196;2023-02-02T04:58:22;100209.84;;;-2.25;77.23
61568;BME280;47462;59.172;17.196;2023-02-02T05:00:48;100253.16;;;-2.34;77.47
61568;BME280;47462;59.172;17.196;2023-02-02T05:03:13;100197.66;;;-2.40;77.60
61568;BME280;47462;59.172;17.196;2023-02-02T05:05:39;100203.78;;;-2.30;77.20
61568;BME280;47462;59.172;17.196;2023-02-02T05:08:04;100233.00;;;-2.14;77.11
61568;BME280;47462;59.172;17.196;2023-02-02T05:10:32;100147.84;;;-2.65;77.03
61568;BME280;47462;59.172;17.196;2023-02-02T05:12:57;100231.00;;;-2.34;76.83
61568;BME280;47462;59.172;17.196;2023-02-02T05:15:23;100176.81;;;-2.66;77.00
61568;BME280;47462;59.172;17.196;2023-02-02T05:17:48;100217.16;;;-2.46;76.98
61568;BME280;47462;59.172;17.196;2023-02-02T05:20:14;100263.56;;;-2.22;77.54
61568;BME280;47462;59.172;17.196;2023-02-02T05:22:39;100200.06;;;-2.99;77.13
61568;BME280;47462;59.172;17.196;2023-02-02T05:25:06;100277.28;;;-2.17;77.47
61568;BME280;47462;59.172;17.196;2023-02-02T05:27:31;100225.63;;;-2.49;77.42
61568;BME280;47462;59.172;17.196;2023-02-02T05:29:57;100229.66;;;-2.63;77.28
61568;BME280;47462;59.172;17.196;2023-02-02T05:32:23;100243.38;;;-2.57;77.28
61568;BME280;47462;59.172;17.196;2023-02-02T05:34:49;100202.00;;;-2.86;77.32
61568;BME280;47462;59.172;17.196;2023-02-02T05:37:14;100299.94;;;-2.37;77.55
61568;BME280;47462;59.172;17.196;2023-02-02T05:39:39;100201.81;;;-2.97;77.41
61568;BME280;47462;59.172;17.196;2023-02-02T05:42:05;100316.31;;;-2.25;77.52
61568;BME280;47462;59.172;17.196;2023-02-02T05:44:30;100279.25;;;-2.52;77.63
61568;BME280;47462;59.172;17.196;2023-02-02T05:46:56;100304.03;;;-2.48;77.52
61568;BME280;47462;59.172;17.196;2023-02-02T05:49:21;100250.47;;;-2.89;77.64
61568;BME280;47462;59.172;17.196;2023-02-02T05:51:49;100334.84;;;-2.39;77.87
61568;BME280;47462;59.172;17.196;2023-02-02T05:54:16;100341.44;;;-2.50;77.42
61568;BME280;47462;59.172;17.196;2023-02-02T05:56:45;100230.19;;;-3.26;77.77
61568;BME280;47462;59.172;17.196;2023-02-02T05:59:11;100350.59;;;-2.61;77.58
61568;BME280;47462;59.172;17.196;2023-02-02T06:01:37;100317.75;;;-2.87;77.79
61568;BME280;47462;59.172;17.196;2023-02-02T06:04:02;100311.94;;;-2.80;77.63
61568;BME280;47462;59.172;17.196;2023-02-02T06:06:27;100404.38;;;-2.55;77.34
61568;BME280;47462;59.172;17.196;2023-02-02T06:08:53;100190.28;;;-3.65;77.10
61568;BME280;47462;59.172;17.196;2023-02-02T06:11:18;100268.44;;;-3.27;77.40
61568;BME280;47462;59.172;17.196;2023-02-02T06:13:44;100279.59;;;-3.22;77.46
61568;BME280;47462;59.172;17.196;2023-02-02T06:16:09;100276.00;;;-3.32;77.44
61568;BME280;47462;59.172;17.196;2023-02-02T06:18:35;100262.97;;;-3.46;77.57
61568;BME280;47462;59.172;17.196;2023-02-02T06:21:02;100387.69;;;-2.79;77.65
61568;BME280;47462;59.172;17.196;2023-02-02T06:23:28;100306.66;;;-3.30;77.86
61568;BME280;47462;59.172;17.196;2023-02-02T06:25:54;99792.69;;;-6.54;77.20
61568;BME280;47462;59.172;17.196;2023-02-02T06:28:19;100392.72;;;-2.83;77.88
61568;BME280;47462;59.172;17.196;2023-02-02T06:30:45;100293.34;;;-3.56;77.99
61568;BME280;47462;59.172;17.196;2023-02-02T06:33:10;100331.97;;;-3.39;77.89
61568;BME280;47462;59.172;17.196;2023-02-02T06:35:36;100365.56;;;-3.21;77.88
61568;BME280;47462;59.172;17.196;2023-02-02T06:38:01;100427.63;;;-2.84;77.95
61568;BME280;47462;59.172;17.196;2023-02-02T06:40:27;99985.47;;;-5.63;77.20
61568;BME280;47462;59.172;17.196;2023-02-02T06:43:01;100404.69;;;-3.20;77.60
61568;BME280;47462;59.172;17.196;2023-02-02T06:45:29;100386.94;;;-3.16;77.81
61568;BME280;47462;59.172;17.196;2023-02-02T06:47:58;100431.81;;;-2.88;77.90
61568;BME280;47462;59.172;17.196;2023-02-02T06:50:26;100442.91;;;-2.85;77.57
61568;BME280;47462;59.172;17.196;2023-02-02T06:52:51;100440.34;;;-2.85;77.29
61568;BME280;47462;59.172;17.196;2023-02-02T06:55:17;100314.00;;;-3.82;77.07
61568;BME280;47462;59.172;17.196;2023-02-02T06:57:43;100463.19;;;-2.92;77.47
61568;BME280;47462;59.172;17.196;2023-02-02T07:00:09;100463.97;;;-2.94;77.39
61568;BME280;47462;59.172;17.196;2023-02-02T07:02:35;100460.66;;;-2.92;77.84
61568;BME280;47462;59.172;17.196;2023-02-02T07:05:00;100467.53;;;-2.89;77.28
61568;BME280;47462;59.172;17.196;2023-02-02T07:07:26;100480.22;;;-2.92;77.50
61568;BME280;47462;59.172;17.196;2023-02-02T07:09:51;100436.47;;;-3.08;77.40
61568;BME280;47462;59.172;17.196;2023-02-02T07:12:17;100371.72;;;-3.49;77.09
61568;BME280;47462;59.172;17.196;2023-02-02T07:14:43;100476.91;;;-2.87;77.31
61568;BME280;47462;59.172;17.196;2023-02-02T07:17:09;100419.63;;;-3.37;77.08
61568;BME280;47462;59.172;17.196;2023-02-02T07:19:34;100405.38;;;-3.29;77.01
61568;BME280;47462;59.172;17.196;2023-02-02T07:22:00;100501.88;;;-2.75;77.13
61568;BME280;47462;59.172;17.196;2023-02-02T07:24:25;100435.34;;;-3.19;76.84
61568;BME280;47462;59.172;17.196;2023-02-02T07:26:52;100344.13;;;-3.67;76.53
61568;BME280;47462;59.172;17.196;2023-02-02T07:29:17;100482.00;;;-2.88;76.48
61568;BME280;47462;59.172;17.196;2023-02-02T07:31:42;100500.19;;;-2.74;76.69
61568;BME280;47462;59.172;17.196;2023-02-02T07:34:08;100463.00;;;-3.01;76.71
61568;BME280;47462;59.172;17.196;2023-02-02T07:36:33;100496.25;;;-2.98;76.97
61568;BME280;47462;59.172;17.196;2023-02-02T07:38:59;100513.56;;;-2.86;76.74
61568;BME280;47462;59.172;17.196;2023-02-02T07:41:28;100516.03;;;-2.89;76.58
61568;BME280;47462;59.172;17.196;2023-02-02T07:43:53;100045.19;;;-5.79;76.72
61568;BME280;47462;59.172;17.196;2023-02-02T07:46:18;100523.00;;;-2.82;77.01
61568;BME280;47462;59.172;17.196;2023-02-02T07:48:44;100522.09;;;-2.84;76.65
61568;BME280;47462;59.172;17.196;2023-02-02T07:51:15;100543.75;;;-2.68;76.29
61568;BME280;47462;59.172;17.196;2023-02-02T07:53:46;100545.69;;;-2.58;76.27
61568;BME280;47462;59.172;17.196;2023-02-02T07:56:14;100550.06;;;-2.52;76.00
61568;BME280;47462;59.172;17.196;2023-02-02T07:58:40;100546.66;;;-2.53;75.86
61568;BME280;47462;59.172;17.196;2023-02-02T08:01:06;100549.84;;;-2.63;76.28
61568;BME280;47462;59.172;17.196;2023-02-02T08:03:33;100561.03;;;-2.56;75.83
61568;BME280;47462;59.172;17.196;2023-02-02T08:05:58;100575.16;;;-2.72;76.05
61568;BME280;47462;59.172;17.196;2023-02-02T08:08:24;100576.81;;;-2.74;75.63
61568;BME280;47462;59.172;17.196;2023-02-02T08:10:51;100585.97;;;-2.84;75.80
61568;BME280;47462;59.172;17.196;2023-02-02T08:13:17;100587.53;;;-2.89;75.39
61568;BME280;47462;59.172;17.196;2023-02-02T08:15:42;100552.47;;;-2.96;75.36
61568;BME280;47462;59.172;17.196;2023-02-02T08:18:08;100524.91;;;-3.10;75.30
61568;BME280;47462;59.172;17.196;2023-02-02T08:20:33;100579.06;;;-2.87;75.68
61568;BME280;47462;59.172;17.196;2023-02-02T08:22:58;100574.13;;;-2.80;75.37
61568;BME280;47462;59.172;17.196;2023-02-02T08:25:24;100534.44;;;-3.02;75.20
61568;BME280;47462;59.172;17.196;2023-02-02T08:27:53;100613.03;;;-2.56;74.88
61568;BME280;47462;59.172;17.196;2023-02-02T08:30:19;100617.25;;;-2.56;75.07
61568;BME280;47462;59.172;17.196;2023-02-02T08:32:44;100620.53;;;-2.63;74.90
61568;BME280;47462;59.172;17.196;2023-02-02T08:35:10;100620.13;;;-2.79;74.92
61568;BME280;47462;59.172;17.196;2023-02-02T08:37:35;100646.41;;;-2.84;75.13
61568;BME280;47462;59.172;17.196;2023-02-02T08:40:01;100441.72;;;-4.06;74.98
61568;BME280;47462;59.172;17.196;2023-02-02T08:42:26;100581.03;;;-3.45;74.96
